sensor_id;sensor_type;location;lat;lon;timestamp;pressure;altitude;pressure_sealevel;temperature;humidity
47530;BME280;33272;51.922;7.730;2022-09-09T00:01:28;100052.91;;;16.09;100.00
47530;BME280;33272;51.922;7.730;2022-09-09T00:04:03;100053.69;;;16.06;100.00
47530;BME280;33272;51.922;7.730;2022-09-09T00:06:34;100053.53;;;16.03;100.00
47530;BME280;33272;51.922;7.730;2022-09-09T00:09:10;100046.69;;;16.04;100.00
47530;BME280;33272;51.922;7.730;2022-09-09T00:11:43;100043.34;;;16.06;100.00
47530;BME280;33272;51.922;7.730;2022-09-09T00:14:22;100038.34;;;16.11;100.00
47530;BME280;33272;51.922;7.730;2022-09-09T00:16:53;100037.94;;;16.21;100.00
47530;BME280;33272;51.922;7.730;2022-09-09T00:19:28;100041.63;;;16.28;100.00
47530;BME280;33272;51.922;7.730;2022-09-09T00:22:12;100037.63;;;16.36;100.00
47530;BME280;33272;51.922;7.730;2022-09-09T00:24:44;100041.38;;;16.42;100.00
47530;BME280;33272;51.922;7.730;2022-09-09T00:27:22;100043.25;;;16.47;100.00
47530;BME280;33272;51.922;7.730;2022-09-09T00:30:00;100045.94;;;16.50;100.00
47530;BME280;33272;51.922;7.730;2022-09-09T00:32:30;100040.06;;;16.54;100.00
47530;BME280;33272;51.922;7.730;2022-09-09T00:35:04;100047.09;;;16.58;100.00
47530;BME280;33272;51.922;7.730;2022-09-09T00:37:38;100033.44;;;16.60;100.00
47530;BME280;33272;51.922;7.730;2022-09-09T00:40:18;100035.97;;;16.59;100.00
47530;BME280;33272;51.922;7.730;2022-09-09T00:42:54;100029.97;;;16.60;100.00
47530;BME280;33272;51.922;7.730;2022-09-09T00:45:50;100025.56;;;16.57;100.00
47530;BME280;33272;51.922;7.730;2022-09-09T00:48:22;100019.63;;;16.60;100.00
47530;BME280;33272;51.922;7.730;2022-09-09T00:50:57;100015.22;;;16.57;100.00
47530;BME280;33272;51.922;7.730;2022-09-09T00:53:34;100022.94;;;16.56;100.00
47530;BME280;33272;51.922;7.730;2022-09-09T00:56:12;100022.81;;;16.53;100.00
47530;BME280;33272;51.922;7.730;2022-09-09T00:58:42;100017.44;;;16.48;100.00
47530;BME280;33272;51.922;7.730;2022-09-09T01:01:12;100027.66;;;16.45;100.00
47530;BME280;33272;51.922;7.730;2022-09-09T01:03:46;100026.63;;;16.40;100.00
47530;BME280;33272;51.922;7.730;2022-09-09T01:06:19;100024.91;;;16.40;100.00
47530;BME280;33272;51.922;7.730;2022-09-09T01:09:10;100026.50;;;16.37;100.00
47530;BME280;33272;51.922;7.730;2022-09-09T01:11:51;100023.03;;;16.36;100.00
47530;BME280;33272;51.922;7.730;2022-09-09T01:14:32;100025.63;;;16.36;100.00
47530;BME280;33272;51.922;7.730;2022-09-09T01:17:14;100022.09;;;16.34;100.00
47530;BME280;33272;51.922;7.730;2022-09-09T01:19:55;100020.34;;;16.33;100.00
47530;BME280;33272;51.922;7.730;2022-09-09T01:22:33;100018.56;;;16.32;100.00
47530;BME280;33272;51.922;7.730;2022-09-09T01:25:27;100022.69;;;16.27;100.00
47530;BME280;33272;51.922;7.730;2022-09-09T01:28:00;100024.31;;;16.25;100.00
47530;BME280;33272;51.922;7.730;2022-09-09T01:30:28;100024.25;;;16.24;100.00
47530;BME280;33272;51.922;7.730;2022-09-09T01:32:57;100027.59;;;16.21;100.00
47530;BME280;33272;51.922;7.730;2022-09-09T01:35:39;100034.91;;;16.10;100.00
47530;BME280;33272;51.922;7.730;2022-09-09T01:38:09;100040.06;;;16.10;100.00
47530;BME280;33272;51.922;7.730;2022-09-09T01:40:37;100037.34;;;16.07;100.00
47530;BME280;33272;51.922;7.730;2022-09-09T01:43:06;100030.41;;;16.05;100.00
47530;BME280;33272;51.922;7.730;2022-09-09T01:45:34;100034.59;;;16.03;100.00
47530;BME280;33272;51.922;7.730;2022-09-09T01:48:02;100036.97;;;15.98;100.00
47530;BME280;33272;51.922;7.730;2022-09-09T01:50:29;100033.47;;;15.96;100.00
47530;BME280;33272;51.922;7.730;2022-09-09T01:52:59;100035.06;;;15.92;100.00
47530;BME280;33272;51.922;7.730;2022-09-09T01:55:31;100034.03;;;15.89;100.00
47530;BME280;33272;51.922;7.730;2022-09-09T01:58:15;100030.44;;;15.85;100.00
47530;BME280;33272;51.922;7.730;2022-09-09T02:00:53;100027.84;;;15.85;100.00
47530;BME280;33272;51.922;7.730;2022-09-09T02:03:26;100028.69;;;15.84;100.00
47530;BME280;33272;51.922;7.730;2022-09-09T02:06:02;100029.50;;;15.83;100.00
47530;BME280;33272;51.922;7.730;2022-09-09T02:08:40;100033.78;;;15.83;100.00
47530;BME280;33272;51.922;7.730;2022-09-09T02:11:13;100043.22;;;15.82;100.00
47530;BME280;33272;51.922;7.730;2022-09-09T02:13:44;100040.63;;;15.82;100.00
47530;BME280;33272;51.922;7.730;2022-09-09T02:16:17;100042.34;;;15.82;100.00
47530;BME280;33272;51.922;7.730;2022-09-09T02:18:52;100037.13;;;15.80;100.00
47530;BME280;33272;51.922;7.730;2022-09-09T02:21:23;100045.75;;;15.81;100.00
47530;BME280;33272;51.922;7.730;2022-09-09T02:23:52;100038.00;;;15.81;100.00
47530;BME280;33272;51.922;7.730;2022-09-09T02:26:20;100037.16;;;15.82;100.00
47530;BME280;33272;51.922;7.730;2022-09-09T02:28:51;100042.34;;;15.82;100.00
47530;BME280;33272;51.922;7.730;2022-09-09T02:31:23;100041.41;;;15.80;100.00
47530;BME280;33272;51.922;7.730;2022-09-09T02:33:55;100038.69;;;15.77;100.00
47530;BME280;33272;51.922;7.730;2022-09-09T02:36:26;100030.88;;;15.75;100.00
47530;BME280;33272;51.922;7.730;2022-09-09T02:38:56;100035.16;;;15.74;100.00
47530;BME280;33272;51.922;7.730;2022-09-09T02:41:30;100029.13;;;15.74;100.00
47530;BME280;33272;51.922;7.730;2022-09-09T02:43:59;100027.34;;;15.73;100.00
47530;BME280;33272;51.922;7.730;2022-09-09T02:46:43;100031.50;;;15.69;100.00
47530;BME280;33272;51.922;7.730;2022-09-09T02:49:19;100036.59;;;15.68;100.00
47530;BME280;33272;51.922;7.730;2022-09-09T02:51:57;100035.63;;;15.66;100.00
47530;BME280;33272;51.922;7.730;2022-09-09T02:54:29;100036.44;;;15.65;100.00
47530;BME280;33272;51.922;7.730;2022-09-09T02:57:03;100041.59;;;15.65;100.00
47530;BME280;33272;51.922;7.730;2022-09-09T02:59:34;100040.72;;;15.64;100.00
47530;BME280;33272;51.922;7.730;2022-09-09T03:02:01;100044.88;;;15.61;100.00
47530;BME280;33272;51.922;7.730;2022-09-09T03:04:28;100048.13;;;15.57;100.00
47530;BME280;33272;51.922;7.730;2022-09-09T03:06:55;100050.69;;;15.57;100.00
47530;BME280;33272;51.922;7.730;2022-09-09T03:09:23;100054.97;;;15.56;100.00
47530;BME280;33272;51.922;7.730;2022-09-09T03:11:52;100051.44;;;15.54;100.00
47530;BME280;33272;51.922;7.730;2022-09-09T03:14:20;100046.97;;;15.50;100.00
47530;BME280;33272;51.922;7.730;2022-09-09T03:16:52;100051.97;;;15.45;100.00
47530;BME280;33272;51.922;7.730;2022-09-09T03:19:19;100052.47;;;15.38;100.00
47530;BME280;33272;51.922;7.730;2022-09-09T03:21:46;100050.53;;;15.33;100.00
47530;BME280;33272;51.922;7.730;2022-09-09T03:24:15;100046.19;;;15.32;100.00
47530;BME280;33272;51.922;7.730;2022-09-09T03:26:42;100043.72;;;15.35;100.00
47530;BME280;33272;51.922;7.730;2022-09-09T03:29:11;100043.94;;;15.39;100.00
47530;BME280;33272;51.922;7.730;2022-09-09T03:31:39;100043.25;;;15.43;100.00
47530;BME280;33272;51.922;7.730;2022-09-09T03:34:07;100041.78;;;15.48;100.00
47530;BME280;33272;51.922;7.730;2022-09-09T03:36:34;100037.50;;;15.49;100.00
47530;BME280;33272;51.922;7.730;2022-09-09T03:39:02;100045.28;;;15.50;100.00
47530;BME280;33272;51.922;7.730;2022-09-09T03:41:29;100037.53;;;15.50;100.00
47530;BME280;33272;51.922;7.730;2022-09-09T03:43:57;100039.19;;;15.48;100.00
47530;BME280;33272;51.922;7.730;2022-09-09T03:46:25;100032.19;;;15.46;100.00
47530;BME280;33272;51.922;7.730;2022-09-09T03:48:52;100044.09;;;15.42;100.00
47530;BME280;33272;51.922;7.730;2022-09-09T03:51:21;100040.50;;;15.39;100.00
47530;BME280;33272;51.922;7.730;2022-09-09T03:53:48;100030.84;;;15.35;100.00
47530;BME280;33272;51.922;7.730;2022-09-09T03:56:15;100034.28;;;15.35;100.00
47530;BME280;33272;51.922;7.730;2022-09-09T03:58:42;100034.28;;;15.35;100.00
47530;BME280;33272;51.922;7.730;2022-09-09T04:01:12;100035.25;;;15.37;100.00
47530;BME280;33272;51.922;7.730;2022-09-09T04:03:40;100032.81;;;15.40;100.00
47530;BME280;33272;51.922;7.730;2022-09-09T04:06:10;100028.63;;;15.42;100.00
47530;BME280;33272;51.922;7.730;2022-09-09T04:08:40;100032.06;;;15.43;100.00
47530;BME280;33272;51.922;7.730;2022-09-09T04:11:07;100027.78;;;15.43;100.00
47530;BME280;33272;51.922;7.730;2022-09-09T04:13:36;100036.47;;;15.45;100.00
47530;BME280;33272;51.922;7.730;2022-09-09T04:16:05;100027.91;;;15.46;100.00
47530;BME280;33272;51.922;7.730;2022-09-09T04:18:32;100028.94;;;15.50;100.00
47530;BME280;33272;51.922;7.730;2022-09-09T04:21:00;100029.94;;;15.53;100.00
47530;BME280;33272;51.922;7.730;2022-09-09T04:23:28;100027.50;;;15.57;100.00
47530;BME280;33272;51.922;7.730;2022-09-09T04:25:58;100029.31;;;15.59;100.00
47530;BME280;33272;51.922;7.730;2022-09-09T04:28:28;100031.06;;;15.60;100.00
47530;BME280;33272;51.922;7.730;2022-09-09T04:30:56;100025.13;;;15.61;100.00
47530;BME280;33272;51.922;7.730;2022-09-09T04:33:24;100032.13;;;15.64;100.00
47530;BME280;33272;51.922;7.730;2022-09-09T04:35:52;100033.72;;;15.62;100.00
47530;BME280;33272;51.922;7.730;2022-09-09T04:38:21;100026.03;;;15.63;100.00
47530;BME280;33272;51.922;7.730;2022-09-09T04:40:51;100038.19;;;15.66;100.00
47530;BME280;33272;51.922;7.730;2022-09-09T04:43:21;100034.84;;;15.67;100.00
47530;BME280;33272;51.922;7.730;2022-09-09T04:45:52;100042.66;;;15.68;100.00
47530;BME280;33272;51.922;7.730;2022-09-09T04:48:20;100046.09;;;15.69;100.00
47530;BME280;33272;51.922;7.730;2022-09-09T04:50:55;100049.63;;;15.71;100.00
47530;BME280;33272;51.922;7.730;2022-09-09T04:53:23;100049.63;;;15.71;100.00
47530;BME280;33272;51.922;7.730;2022-09-09T04:55:51;100052.22;;;15.71;100.00
47530;BME280;33272;51.922;7.730;2022-09-09T04:58:19;100053.09;;;15.71;100.00
47530;BME280;33272;51.922;7.730;2022-09-09T05:00:48;100058.31;;;15.73;100.00
47530;BME280;33272;51.922;7.730;2022-09-09T05:03:15;100052.34;;;15.74;100.00
47530;BME280;33272;51.922;7.730;2022-09-09T05:05:42;100056.69;;;15.75;100.00
47530;BME280;33272;51.922;7.730;2022-09-09T05:08:10;100050.78;;;15.78;100.00
47530;BME280;33272;51.922;7.730;2022-09-09T05:10:38;100047.44;;;15.80;100.00
47530;BME280;33272;51.922;7.730;2022-09-09T05:13:07;100043.22;;;15.82;100.00
47530;BME280;33272;51.922;7.730;2022-09-09T05:15:35;100044.28;;;15.87;100.00
47530;BME280;33272;51.922;7.730;2022-09-09T05:18:03;100039.31;;;15.92;100.00
47530;BME280;33272;51.922;7.730;2022-09-09T05:20:30;100042.09;;;15.96;100.00
47530;BME280;33272;51.922;7.730;2022-09-09T05:22:57;100045.75;;;16.02;100.00
47530;BME280;33272;51.922;7.730;2022-09-09T05:25:24;100033.91;;;16.07;100.00
47530;BME280;33272;51.922;7.730;2022-09-09T05:27:52;100028.94;;;16.11;100.00
47530;BME280;33272;51.922;7.730;2022-09-09T05:30:20;100035.22;;;16.18;100.00
47530;BME280;33272;51.922;7.730;2022-09-09T05:32:48;100035.47;;;16.24;100.00
47530;BME280;33272;51.922;7.730;2022-09-09T05:35:15;100040.88;;;16.30;100.00
47530;BME280;33272;51.922;7.730;2022-09-09T05:37:44;100040.22;;;16.36;100.00
47530;BME280;33272;51.922;7.730;2022-09-09T05:40:12;100038.59;;;16.38;100.00
47530;BME280;33272;51.922;7.730;2022-09-09T05:42:39;100044.75;;;16.41;100.00
47530;BME280;33272;51.922;7.730;2022-09-09T05:45:07;100041.47;;;16.45;100.00
47530;BME280;33272;51.922;7.730;2022-09-09T05:47:35;100040.78;;;16.50;100.00
47530;BME280;33272;51.922;7.730;2022-09-09T05:50:05;100041.94;;;16.58;100.00
47530;BME280;33272;51.922;7.730;2022-09-09T05:52:32;100046.34;;;16.60;100.00
47530;BME280;33272;51.922;7.730;2022-09-09T05:54:59;100047.34;;;16.64;100.00
47530;BME280;33272;51.922;7.730;2022-09-09T05:57:26;100042.47;;;16.72;100.00
47530;BME280;33272;51.922;7.730;2022-09-09T05:59:53;100050.50;;;16.78;100.00
47530;BME280;33272;51.922;7.730;2022-09-09T06:02:20;100045.59;;;16.85;100.00
47530;BME280;33272;51.922;7.730;2022-09-09T06:04:47;100049.38;;;16.94;100.00
47530;BME280;33272;51.922;7.730;2022-09-09T06:07:15;100052.19;;;17.00;100.00
47530;BME280;33272;51.922;7.730;2022-09-09T06:09:43;100047.28;;;17.07;100.00
47530;BME280;33272;51.922;7.730;2022-09-09T06:12:10;100043.22;;;17.14;100.00
47530;BME280;33272;51.922;7.730;2022-09-09T06:14:37;100035.69;;;17.20;100.00
47530;BME280;33272;51.922;7.730;2022-09-09T06:17:04;100046.31;;;17.28;100.00
47530;BME280;33272;51.922;7.730;2022-09-09T06:19:32;100044.00;;;17.35;100.00
47530;BME280;33272;51.922;7.730;2022-09-09T06:21:59;100047.75;;;17.44;100.00
47530;BME280;33272;51.922;7.730;2022-09-09T06:24:27;100050.47;;;17.48;100.00
47530;BME280;33272;51.922;7.730;2022-09-09T06:26:56;100045.50;;;17.54;100.00
47530;BME280;33272;51.922;7.730;2022-09-09T06:29:23;100051.78;;;17.61;100.00
47530;BME280;33272;51.922;7.730;2022-09-09T06:31:50;100048.63;;;17.70;100.00
47530;BME280;33272;51.922;7.730;2022-09-09T06:34:17;100046.25;;;17.76;100.00
47530;BME280;33272;51.922;7.730;2022-09-09T06:36:44;100047.47;;;17.86;100.00
47530;BME280;33272;51.922;7.730;2022-09-09T06:39:11;100045.97;;;17.92;100.00
47530;BME280;33272;51.922;7.730;2022-09-09T06:41:42;100047.88;;;17.98;100.00
47530;BME280;33272;51.922;7.730;2022-09-09T06:44:09;100056.66;;;18.03;100.00
47530;BME280;33272;51.922;7.730;2022-09-09T06:46:37;100047.31;;;18.06;100.00
47530;BME280;33272;51.922;7.730;2022-09-09T06:49:05;100049.16;;;18.11;100.00
47530;BME280;33272;51.922;7.730;2022-09-09T06:51:35;100054.56;;;18.18;100.00
47530;BME280;33272;51.922;7.730;2022-09-09T06:54:03;100060.81;;;18.23;100.00
47530;BME280;33272;51.922;7.730;2022-09-09T06:56:34;100063.69;;;18.33;100.00
47530;BME280;33272;51.922;7.730;2022-09-09T06:59:04;100064.78;;;18.41;100.00
47530;BME280;33272;51.922;7.730;2022-09-09T07:01:36;100070.06;;;18.44;100.00
47530;BME280;33272;51.922;7.730;2022-09-09T07:04:05;100067.66;;;18.50;100.00
47530;BME280;33272;51.922;7.730;2022-09-09T07:06:36;100064.19;;;18.49;100.00
47530;BME280;33272;51.922;7.730;2022-09-09T07:09:05;100068.38;;;18.44;100.00
47530;BME280;33272;51.922;7.730;2022-09-09T07:11:38;100063.22;;;18.46;100.00
47530;BME280;33272;51.922;7.730;2022-09-09T07:14:06;100070.13;;;18.45;100.00
47530;BME280;33272;51.922;7.730;2022-09-09T07:16:34;100067.63;;;18.48;100.00
47530;BME280;33272;51.922;7.730;2022-09-09T07:19:03;100075.41;;;18.48;100.00
47530;BME280;33272;51.922;7.730;2022-09-09T07:21:32;100072.91;;;18.51;100.00
47530;BME280;33272;51.922;7.730;2022-09-09T07:24:00;100072.16;;;18.56;100.00
47530;BME280;33272;51.922;7.730;2022-09-09T07:26:30;100071.63;;;18.66;100.00
47530;BME280;33272;51.922;7.730;2022-09-09T07:28:57;100071.16;;;18.78;100.00
47530;BME280;33272;51.922;7.730;2022-09-09T07:31:27;100074.19;;;18.93;100.00
47530;BME280;33272;51.922;7.730;2022-09-09T07:33:56;100074.50;;;19.04;100.00
47530;BME280;33272;51.922;7.730;2022-09-09T07:36:25;100074.78;;;19.13;100.00
47530;BME280;33272;51.922;7.730;2022-09-09T07:38:55;100083.59;;;19.19;100.00
47530;BME280;33272;51.922;7.730;2022-09-09T07:41:25;100078.59;;;19.26;100.00
47530;BME280;33272;51.922;7.730;2022-09-09T07:43:53;100078.22;;;19.12;100.00
47530;BME280;33272;51.922;7.730;2022-09-09T07:46:22;100072.50;;;19.24;100.00
47530;BME280;33272;51.922;7.730;2022-09-09T07:48:53;100074.28;;;19.26;100.00
47530;BME280;33272;51.922;7.730;2022-09-09T07:51:24;100075.81;;;19.19;100.00
47530;BME280;33272;51.922;7.730;2022-09-09T07:53:53;100082.78;;;19.20;100.00
47530;BME280;33272;51.922;7.730;2022-09-09T07:56:21;100080.22;;;19.22;100.00
47530;BME280;33272;51.922;7.730;2022-09-09T07:58:51;100074.63;;;19.38;100.00
47530;BME280;33272;51.922;7.730;2022-09-09T08:01:22;100077.53;;;19.49;100.00
47530;BME280;33272;51.922;7.730;2022-09-09T08:03:55;100077.31;;;19.72;100.00
47530;BME280;33272;51.922;7.730;2022-09-09T08:06:25;100077.81;;;19.91;100.00
47530;BME280;33272;51.922;7.730;2022-09-09T08:08:53;100081.50;;;20.01;100.00
47530;BME280;33272;51.922;7.730;2022-09-09T08:11:22;100081.44;;;19.98;100.00
47530;BME280;33272;51.922;7.730;2022-09-09T08:13:51;100082.81;;;20.19;100.00
47530;BME280;33272;51.922;7.730;2022-09-09T08:16:21;100087.53;;;20.35;100.00
47530;BME280;33272;51.922;7.730;2022-09-09T08:18:48;100080.44;;;20.28;100.00
47530;BME280;33272;51.922;7.730;2022-09-09T08:21:20;100080.69;;;20.38;100.00
47530;BME280;33272;51.922;7.730;2022-09-09T08:23:49;100083.59;;;20.51;100.00
47530;BME280;33272;51.922;7.730;2022-09-09T08:26:20;100089.84;;;20.57;100.00
47530;BME280;33272;51.922;7.730;2022-09-09T08:28:50;100090.72;;;20.58;100.00
47530;BME280;33272;51.922;7.730;2022-09-09T08:31:20;100088.03;;;20.53;100.00
47530;BME280;33272;51.922;7.730;2022-09-09T08:33:47;100084.72;;;20.60;100.00
47530;BME280;33272;51.922;7.730;2022-09-09T08:36:19;100088.38;;;20.69;99.90
47530;BME280;33272;51.922;7.730;2022-09-09T08:38:48;100087.53;;;20.70;98.73
47530;BME280;33272;51.922;7.730;2022-09-09T08:41:39;100098.84;;;20.72;94.13
47530;BME280;33272;51.922;7.730;2022-09-09T08:44:11;100091.53;;;20.93;98.24
47530;BME280;33272;51.922;7.730;2022-09-09T08:46:48;100100.34;;;21.00;97.54
47530;BME280;33272;51.922;7.730;2022-09-09T08:49:42;100106.22;;;20.93;93.33
47530;BME280;33272;51.922;7.730;2022-09-09T08:52:21;100097.53;;;20.91;97.49
47530;BME280;33272;51.922;7.730;2022-09-09T08:54:50;100099.41;;;20.98;96.03
47530;BME280;33272;51.922;7.730;2022-09-09T08:57:23;100096.34;;;21.17;92.88
47530;BME280;33272;51.922;7.730;2022-09-09T08:59:53;100097.41;;;21.25;94.92
47530;BME280;33272;51.922;7.730;2022-09-09T09:02:26;100100.34;;;21.42;90.72
47530;BME280;33272;51.922;7.730;2022-09-09T09:05:17;100096.41;;;21.19;87.58
47530;BME280;33272;51.922;7.730;2022-09-09T09:07:59;100092.69;;;21.50;92.27
47530;BME280;33272;51.922;7.730;2022-09-09T09:10:39;100095.41;;;21.56;92.08
47530;BME280;33272;51.922;7.730;2022-09-09T09:13:15;100099.28;;;21.78;90.73
47530;BME280;33272;51.922;7.730;2022-09-09T09:15:46;100098.63;;;21.88;90.42
47530;BME280;33272;51.922;7.730;2022-09-09T09:18:17;100110.81;;;21.89;89.35
47530;BME280;33272;51.922;7.730;2022-09-09T09:20:53;100108.06;;;21.82;82.27
47530;BME280;33272;51.922;7.730;2022-09-09T09:23:28;100099.69;;;21.99;85.97
47530;BME280;33272;51.922;7.730;2022-09-09T09:26:00;100102.13;;;21.89;85.80
47530;BME280;33272;51.922;7.730;2022-09-09T09:28:30;100108.22;;;21.91;87.23
47530;BME280;33272;51.922;7.730;2022-09-09T09:31:01;100106.34;;;21.84;86.69
47530;BME280;33272;51.922;7.730;2022-09-09T09:33:36;100105.06;;;21.62;84.84
47530;BME280;33272;51.922;7.730;2022-09-09T09:36:06;100107.78;;;21.66;86.74
47530;BME280;33272;51.922;7.730;2022-09-09T09:38:36;100109.53;;;21.67;86.06
47530;BME280;33272;51.922;7.730;2022-09-09T09:41:03;100110.97;;;21.51;85.46
47530;BME280;33272;51.922;7.730;2022-09-09T09:43:33;100110.03;;;21.48;85.29
47530;BME280;33272;51.922;7.730;2022-09-09T09:46:00;100102.91;;;21.39;86.10
47530;BME280;33272;51.922;7.730;2022-09-09T09:48:30;100111.09;;;21.58;86.00
47530;BME280;33272;51.922;7.730;2022-09-09T09:51:00;100099.13;;;21.69;84.89
47530;BME280;33272;51.922;7.730;2022-09-09T09:53:30;100102.75;;;21.75;84.24
47530;BME280;33272;51.922;7.730;2022-09-09T09:56:01;100099.28;;;21.78;81.42
47530;BME280;33272;51.922;7.730;2022-09-09T09:58:32;100103.47;;;21.68;80.69
47530;BME280;33272;51.922;7.730;2022-09-09T10:01:00;100109.34;;;21.57;80.50
47530;BME280;33272;51.922;7.730;2022-09-09T10:03:30;100104.03;;;21.52;79.43
47530;BME280;33272;51.922;7.730;2022-09-09T10:05:58;100091.88;;;21.52;82.81
47530;BME280;33272;51.922;7.730;2022-09-09T10:08:27;100087.13;;;21.77;82.17
47530;BME280;33272;51.922;7.730;2022-09-09T10:11:21;100089.97;;;21.91;80.96
47530;BME280;33272;51.922;7.730;2022-09-09T10:14:05;100086.75;;;22.04;77.70
47530;BME280;33272;51.922;7.730;2022-09-09T10:16:54;100092.00;;;22.07;75.23
47530;BME280;33272;51.922;7.730;2022-09-09T10:19:31;100087.63;;;22.05;77.39
47530;BME280;33272;51.922;7.730;2022-09-09T10:22:11;100089.91;;;21.88;75.99
47530;BME280;33272;51.922;7.730;2022-09-09T10:25:10;100085.00;;;21.56;75.55
47530;BME280;33272;51.922;7.730;2022-09-09T10:27:54;100082.88;;;21.37;76.33
47530;BME280;33272;51.922;7.730;2022-09-09T10:30:33;100090.06;;;21.47;77.48
47530;BME280;33272;51.922;7.730;2022-09-09T10:33:09;100080.88;;;21.66;80.10
47530;BME280;33272;51.922;7.730;2022-09-09T10:35:44;100080.56;;;21.97;80.30
47530;BME280;33272;51.922;7.730;2022-09-09T10:38:18;100087.72;;;22.12;77.75
47530;BME280;33272;51.922;7.730;2022-09-09T10:41:16;100079.56;;;22.42;73.67
47530;BME280;33272;51.922;7.730;2022-09-09T10:44:17;100089.44;;;22.63;73.28
47530;BME280;33272;51.922;7.730;2022-09-09T10:47:23;100092.03;;;22.62;70.62
47530;BME280;33272;51.922;7.730;2022-09-09T10:50:12;100086.22;;;22.80;70.90
47530;BME280;33272;51.922;7.730;2022-09-09T10:52:52;100065.75;;;23.09;75.03
47530;BME280;33272;51.922;7.730;2022-09-09T10:55:27;100077.88;;;23.07;70.41
47530;BME280;33272;51.922;7.730;2022-09-09T10:57:59;100080.16;;;22.84;71.76
47530;BME280;33272;51.922;7.730;2022-09-09T11:00:39;100080.78;;;22.64;69.08
47530;BME280;33272;51.922;7.730;2022-09-09T11:03:17;100063.72;;;22.89;69.01
47530;BME280;33272;51.922;7.730;2022-09-09T11:05:49;100077.84;;;23.02;72.29
47530;BME280;33272;51.922;7.730;2022-09-09T11:08:20;100065.63;;;23.01;70.24
47530;BME280;33272;51.922;7.730;2022-09-09T11:10:52;100070.50;;;22.78;66.69
47530;BME280;33272;51.922;7.730;2022-09-09T11:13:29;100065.63;;;22.98;70.31
47530;BME280;33272;51.922;7.730;2022-09-09T11:16:04;100062.56;;;22.69;64.88
47530;BME280;33272;51.922;7.730;2022-09-09T11:18:38;100066.59;;;23.08;66.87
47530;BME280;33272;51.922;7.730;2022-09-09T11:21:20;100067.56;;;23.15;63.40
47530;BME280;33272;51.922;7.730;2022-09-09T11:23:52;100061.63;;;23.29;67.65
47530;BME280;33272;51.922;7.730;2022-09-09T11:26:31;100063.28;;;23.23;64.73
47530;BME280;33272;51.922;7.730;2022-09-09T11:29:27;100057.97;;;23.15;64.10
47530;BME280;33272;51.922;7.730;2022-09-09T11:32:12;100065.81;;;23.15;64.95
47530;BME280;33272;51.922;7.730;2022-09-09T11:34:53;100076.63;;;23.47;68.85
47530;BME280;33272;51.922;7.730;2022-09-09T11:38:07;100068.25;;;23.76;67.07
47530;BME280;33272;51.922;7.730;2022-09-09T11:40:39;100071.81;;;23.84;67.95
47530;BME280;33272;51.922;7.730;2022-09-09T11:43:12;100067.41;;;23.78;68.23
47530;BME280;33272;51.922;7.730;2022-09-09T11:45:42;100079.63;;;23.82;68.14
47530;BME280;33272;51.922;7.730;2022-09-09T11:48:35;100068.88;;;23.56;62.84
47530;BME280;33272;51.922;7.730;2022-09-09T11:51:05;100075.19;;;23.72;68.49
47530;BME280;33272;51.922;7.730;2022-09-09T11:53:34;100074.66;;;23.29;65.12
47530;BME280;33272;51.922;7.730;2022-09-09T11:56:27;100076.22;;;23.13;64.01
47530;BME280;33272;51.922;7.730;2022-09-09T11:59:00;100069.47;;;23.32;67.07
47530;BME280;33272;51.922;7.730;2022-09-09T12:01:35;100073.03;;;23.38;63.59
47530;BME280;33272;51.922;7.730;2022-09-09T12:04:26;100070.81;;;23.73;64.92
47530;BME280;33272;51.922;7.730;2022-09-09T12:06:58;100070.03;;;23.81;63.99
47530;BME280;33272;51.922;7.730;2022-09-09T12:09:39;100067.63;;;24.04;63.05
47530;BME280;33272;51.922;7.730;2022-09-09T12:12:30;100068.22;;;23.71;59.57
47530;BME280;33272;51.922;7.730;2022-09-09T12:15:24;100066.34;;;23.64;60.25
47530;BME280;33272;51.922;7.730;2022-09-09T12:17:56;100062.97;;;23.73;63.60
47530;BME280;33272;51.922;7.730;2022-09-09T12:20:33;100060.41;;;23.76;61.17
47530;BME280;33272;51.922;7.730;2022-09-09T12:23:21;100059.56;;;23.80;60.11
47530;BME280;33272;51.922;7.730;2022-09-09T12:26:07;100064.00;;;23.89;62.91
47530;BME280;33272;51.922;7.730;2022-09-09T12:28:52;100061.34;;;23.82;60.73
47530;BME280;33272;51.922;7.730;2022-09-09T12:31:27;100063.00;;;23.74;59.25
47530;BME280;33272;51.922;7.730;2022-09-09T12:34:10;100058.63;;;23.73;58.02
47530;BME280;33272;51.922;7.730;2022-09-09T12:36:40;100051.72;;;23.80;62.57
47530;BME280;33272;51.922;7.730;2022-09-09T12:39:19;100053.53;;;23.89;59.64
47530;BME280;33272;51.922;7.730;2022-09-09T12:41:53;100057.19;;;24.06;58.76
47530;BME280;33272;51.922;7.730;2022-09-09T12:44:23;100046.66;;;23.97;61.46
47530;BME280;33272;51.922;7.730;2022-09-09T12:46:52;100055.41;;;24.02;61.88
47530;BME280;33272;51.922;7.730;2022-09-09T12:49:32;100049.03;;;23.71;57.49
47530;BME280;33272;51.922;7.730;2022-09-09T12:52:06;100052.59;;;23.77;58.33
47530;BME280;33272;51.922;7.730;2022-09-09T12:54:36;100052.66;;;23.85;59.58
47530;BME280;33272;51.922;7.730;2022-09-09T12:57:04;100048.19;;;23.76;59.02
47530;BME280;33272;51.922;7.730;2022-09-09T12:59:37;100048.97;;;23.68;60.77
47530;BME280;33272;51.922;7.730;2022-09-09T13:02:24;100051.53;;;23.63;60.18
47530;BME280;33272;51.922;7.730;2022-09-09T13:04:52;100049.97;;;23.79;61.66
47530;BME280;33272;51.922;7.730;2022-09-09T13:07:22;100044.78;;;23.82;61.71
47530;BME280;33272;51.922;7.730;2022-09-09T13:09:50;100037.22;;;24.17;61.17
47530;BME280;33272;51.922;7.730;2022-09-09T13:12:19;100033.84;;;24.34;58.28